Alstead Center, New Hampshire
Current Conditions -  °F | °C
As of 8:35 AM on Wednesday 22 Oct 2014 (Local Time) from KEEN Reporting Station
Overcast Overcast  
Wind Chill: 50°   Ceiling: 1700
Heat Index: 50°   Visibility: 10mi
Dew Point: 39°   Wind: 10mph
Humidity: 66%   Direction: 20°NNE
Pressure: 30.07"   Gusts: NA
Location:  43.1141°N, 72.3097°W
Report Text: KEEN 221235Z AUTO 02009KT 10SM OVC017 10/04 A3007 RMK AO1
Loading
Personal Weather Stations






























Interactive Weather Map New forecast layout! Learn more

10-Day Weather Forecast

Advertisements
Track Severe Weather on mobile